createdAt,value
2017-09-24T00:01:33.057Z,33.70
2017-09-24T00:04:01.533Z,34.67
2017-09-24T00:06:30.179Z,31.67
2017-09-24T00:08:58.671Z,33.03
2017-09-24T00:11:27.181Z,35.70
2017-09-24T00:13:55.790Z,34.03
2017-09-24T00:16:26.187Z,32.27
2017-09-24T00:18:54.625Z,34.10
2017-09-24T00:21:23.036Z,34.47
2017-09-24T00:23:51.541Z,31.80
2017-09-24T00:26:20.007Z,32.40
2017-09-24T00:28:48.502Z,30.40
2017-09-24T00:31:16.885Z,31.13
2017-09-24T00:33:45.283Z,34.10
2017-09-24T00:36:13.827Z,34.00
2017-09-24T00:38:42.737Z,33.30
2017-09-24T00:41:11.308Z,39.03
2017-09-24T00:43:39.695Z,35.40
2017-09-24T00:46:08.831Z,36.63
2017-09-24T00:48:37.494Z,36.73
2017-09-24T00:51:05.964Z,36.67
2017-09-24T00:53:34.345Z,41.93
2017-09-24T00:56:02.825Z,43.03
2017-09-24T00:58:31.193Z,42.03
2017-09-24T01:00:59.713Z,41.47
2017-09-24T01:03:30.130Z,41.47
2017-09-24T01:05:58.562Z,41.70
2017-09-24T01:08:26.993Z,43.23
2017-09-24T01:10:55.360Z,40.17
2017-09-24T01:13:23.745Z,41.50
2017-09-24T01:15:52.195Z,42.20
2017-09-24T01:18:20.577Z,44.27
2017-09-24T01:20:48.989Z,41.23
2017-09-24T01:23:17.376Z,44.57
2017-09-24T01:25:45.745Z,46.70
2017-09-24T01:28:14.135Z,45.97
2017-09-24T01:30:42.525Z,46.37
2017-09-24T01:33:11.013Z,46.33
2017-09-24T01:35:39.485Z,46.43
2017-09-24T01:38:07.895Z,49.43
2017-09-24T01:40:36.724Z,43.90
2017-09-24T01:43:05.192Z,46.27
2017-09-24T01:45:33.846Z,47.33
2017-09-24T01:48:02.341Z,45.13
2017-09-24T01:50:30.760Z,46.23
2017-09-24T01:52:59.145Z,48.53
2017-09-24T01:55:27.512Z,46.07
2017-09-24T01:57:55.878Z,48.80
2017-09-24T02:00:24.261Z,46.93
2017-09-24T02:02:52.635Z,45.40
2017-09-24T02:05:21.014Z,46.97
2017-09-24T02:07:49.432Z,47.20
2017-09-24T02:10:17.776Z,47.67
2017-09-24T02:12:46.213Z,46.00
2017-09-24T02:15:14.619Z,47.60
2017-09-24T02:17:42.984Z,44.90
2017-09-24T02:20:11.348Z,45.83
2017-09-24T02:22:39.761Z,45.77
2017-09-24T02:25:08.273Z,46.97
2017-09-24T02:27:37.080Z,48.10
2017-09-24T02:30:05.461Z,47.23
2017-09-24T02:32:33.846Z,50.67
2017-09-24T02:35:02.355Z,48.20
2017-09-24T02:37:30.757Z,45.93
2017-09-24T02:39:59.225Z,48.20
2017-09-24T02:42:27.580Z,47.00
2017-09-24T02:44:56.001Z,48.97
2017-09-24T02:47:24.430Z,47.03
2017-09-24T02:49:52.765Z,50.60
2017-09-24T02:52:21.148Z,50.73
2017-09-24T02:54:49.493Z,52.17
2017-09-24T02:57:17.856Z,46.97
2017-09-24T02:59:46.287Z,47.73
2017-09-24T03:02:14.638Z,46.67
2017-09-24T03:04:43.083Z,45.50
2017-09-24T03:07:11.466Z,44.20
2017-09-24T03:09:39.935Z,46.73
2017-09-24T03:12:08.320Z,42.97
2017-09-24T03:14:37.119Z,45.87
2017-09-24T03:17:05.510Z,46.00
2017-09-24T03:19:33.873Z,45.57
2017-09-24T03:22:02.371Z,45.60
2017-09-24T03:24:30.733Z,44.20
2017-09-24T03:26:59.085Z,49.63
2017-09-24T03:29:27.602Z,47.67
2017-09-24T03:31:56.027Z,47.97
2017-09-24T03:34:24.443Z,52.93
2017-09-24T03:36:52.801Z,49.07
2017-09-24T03:39:21.183Z,47.27
2017-09-24T03:41:49.594Z,46.27
2017-09-24T03:44:18.243Z,50.70
2017-09-24T03:46:46.672Z,53.37
2017-09-24T03:49:15.161Z,49.83
2017-09-24T03:51:43.659Z,48.27
2017-09-24T03:54:12.082Z,51.80
2017-09-24T03:56:40.626Z,50.77
2017-09-24T03:59:09.025Z,39.70
2017-09-24T04:01:37.530Z,37.00
2017-09-24T04:04:05.949Z,36.03
2017-09-24T04:06:34.393Z,34.73
2017-09-24T04:09:02.755Z,34.17
2017-09-24T04:11:31.101Z,37.17
2017-09-24T04:13:59.602Z,36.80
2017-09-24T04:16:27.973Z,37.00
2017-09-24T04:18:56.352Z,40.00
2017-09-24T04:21:24.808Z,41.60
2017-09-24T04:23:53.219Z,45.33
2017-09-24T04:26:21.632Z,46.90
2017-09-24T04:28:50.110Z,47.67
2017-09-24T04:31:18.435Z,46.37
2017-09-24T04:33:46.830Z,45.17
2017-09-24T04:36:15.419Z,50.07
2017-09-24T04:38:43.888Z,47.57
2017-09-24T04:41:12.256Z,48.63
2017-09-24T04:43:40.655Z,51.37
2017-09-24T04:46:09.187Z,49.67
2017-09-24T04:48:37.704Z,47.37
2017-09-24T04:51:06.163Z,49.97
2017-09-24T04:53:34.568Z,47.67
2017-09-24T04:56:02.950Z,47.97
2017-09-24T04:58:31.353Z,46.03
2017-09-24T05:00:59.796Z,49.47
2017-09-24T05:03:28.164Z,48.40
2017-09-24T05:05:56.582Z,45.80
2017-09-24T05:08:24.950Z,47.00
2017-09-24T05:10:54.085Z,43.40
2017-09-24T05:13:22.496Z,52.37
2017-09-24T05:15:50.880Z,45.93
2017-09-24T05:18:19.257Z,43.00
2017-09-24T05:20:47.723Z,43.70
2017-09-24T05:23:16.074Z,47.20
2017-09-24T05:25:44.469Z,43.17
2017-09-24T05:28:12.889Z,40.60
2017-09-24T05:30:41.340Z,37.97
2017-09-24T05:33:09.800Z,36.77
2017-09-24T05:35:38.320Z,38.80
2017-09-24T05:38:06.748Z,37.27
2017-09-24T05:40:35.754Z,37.50
2017-09-24T05:43:04.217Z,39.13
2017-09-24T05:45:32.568Z,41.30
2017-09-24T05:48:00.963Z,39.23
2017-09-24T05:50:29.320Z,36.80
2017-09-24T05:52:57.806Z,39.37
2017-09-24T05:55:26.188Z,40.17
2017-09-24T05:57:54.580Z,41.27
2017-09-24T06:00:22.941Z,39.70
2017-09-24T06:02:51.384Z,40.47
2017-09-24T06:05:19.757Z,39.33
2017-09-24T06:07:48.125Z,37.73
2017-09-24T06:10:16.536Z,40.50
2017-09-24T06:12:45.004Z,42.17
2017-09-24T06:17:48.056Z,37.50
2017-09-24T06:20:16.458Z,36.53
2017-09-24T06:22:44.926Z,38.67
2017-09-24T06:25:13.382Z,34.20
2017-09-24T06:27:41.788Z,37.20
2017-09-24T06:30:10.191Z,37.30
2017-09-24T06:32:38.725Z,37.97
2017-09-24T06:35:07.252Z,35.63
2017-09-24T06:37:35.605Z,36.17
2017-09-24T06:40:04.783Z,36.20
2017-09-24T06:42:33.187Z,36.07
2017-09-24T06:45:01.569Z,35.53
2017-09-24T06:47:30.077Z,36.50
2017-09-24T06:49:58.509Z,35.97
2017-09-24T06:52:26.889Z,32.80
2017-09-24T06:54:55.413Z,38.63
2017-09-24T06:57:23.810Z,36.90
2017-09-24T06:59:52.226Z,35.73
2017-09-24T07:02:20.700Z,39.00
2017-09-24T07:04:49.050Z,38.40
2017-09-24T07:07:17.406Z,38.90
2017-09-24T07:09:45.848Z,41.00
2017-09-24T07:12:14.225Z,42.50
2017-09-24T07:14:42.649Z,40.80
2017-09-24T07:17:11.236Z,39.30
2017-09-24T07:19:39.686Z,39.57
2017-09-24T07:22:08.131Z,40.23
2017-09-24T07:24:36.590Z,41.13
2017-09-24T07:27:04.972Z,39.67
2017-09-24T07:29:33.464Z,38.40
2017-09-24T07:32:01.974Z,41.27
2017-09-24T07:34:30.369Z,40.40
2017-09-24T07:36:58.799Z,38.40
2017-09-24T07:39:27.228Z,40.87
2017-09-24T07:41:55.630Z,36.93
2017-09-24T07:44:24.137Z,37.47
2017-09-24T07:46:52.656Z,37.40
2017-09-24T07:49:21.111Z,36.13
2017-09-24T07:51:50.079Z,39.07
2017-09-24T07:54:18.664Z,38.40
2017-09-24T07:56:47.080Z,36.30
2017-09-24T07:59:15.523Z,36.33
2017-09-24T08:01:43.972Z,37.33
2017-09-24T08:04:12.369Z,36.37
2017-09-24T08:06:40.869Z,37.30
2017-09-24T08:09:09.473Z,39.93
2017-09-24T08:11:37.954Z,39.00
2017-09-24T08:14:06.566Z,33.60
2017-09-24T08:16:34.991Z,35.93
2017-09-24T08:19:03.593Z,36.20
2017-09-24T08:21:32.068Z,35.63
2017-09-24T08:24:00.629Z,36.20
2017-09-24T08:26:29.122Z,34.27
2017-09-24T08:28:58.073Z,32.23
2017-09-24T08:31:28.441Z,33.73
2017-09-24T08:33:56.863Z,35.17
2017-09-24T08:36:26.130Z,34.37
2017-09-24T08:38:54.787Z,34.00
2017-09-24T08:41:23.658Z,31.63
2017-09-24T08:43:52.129Z,33.90
2017-09-24T08:46:20.722Z,32.53
2017-09-24T08:48:49.277Z,31.50
2017-09-24T08:51:18.476Z,32.93
2017-09-24T08:53:46.951Z,29.47
2017-09-24T08:56:16.317Z,32.70
2017-09-24T09:01:21.964Z,26.53
2017-09-24T09:06:23.690Z,23.87
2017-09-24T09:08:53.408Z,24.37
2017-09-24T09:11:22.043Z,20.90
2017-09-24T09:13:50.506Z,22.60
2017-09-24T09:16:19.579Z,18.77
2017-09-24T09:18:48.170Z,20.20
2017-09-24T09:21:16.902Z,23.30
2017-09-24T09:23:45.423Z,22.87
2017-09-24T09:26:13.900Z,21.03
2017-09-24T09:28:42.357Z,21.23
2017-09-24T09:31:11.060Z,21.37
2017-09-24T09:33:39.468Z,22.40
2017-09-24T09:36:07.988Z,19.20
2017-09-24T09:38:36.677Z,17.00
2017-09-24T09:41:05.095Z,16.87
2017-09-24T09:43:45.773Z,15.40
2017-09-24T09:46:26.145Z,18.63
2017-09-24T09:51:28.976Z,17.63
2017-09-24T09:53:57.364Z,20.57
2017-09-24T09:56:25.854Z,20.93
2017-09-24T09:58:54.250Z,18.43
2017-09-24T10:01:22.626Z,19.30
2017-09-24T10:03:51.111Z,16.37
2017-09-24T10:09:38.195Z,20.43
2017-09-24T10:12:06.920Z,19.37
2017-09-24T10:14:35.344Z,18.73
2017-09-24T10:17:03.762Z,18.50
2017-09-24T10:19:32.577Z,19.03
2017-09-24T10:22:01.079Z,17.93
2017-09-24T10:24:29.614Z,16.77
2017-09-24T10:26:58.165Z,18.40
2017-09-24T10:29:28.407Z,16.03
2017-09-24T10:32:03.392Z,15.20
2017-09-24T10:34:31.793Z,14.83
2017-09-24T10:37:00.237Z,16.80
2017-09-24T10:39:28.677Z,15.20
2017-09-24T10:41:57.019Z,14.50
2017-09-24T10:44:25.349Z,16.30
2017-09-24T10:46:53.766Z,16.67
2017-09-24T10:49:22.159Z,16.33
2017-09-24T10:51:51.334Z,13.70
2017-09-24T10:54:19.765Z,15.90
2017-09-24T10:56:48.177Z,15.83
2017-09-24T10:59:16.881Z,14.50
2017-09-24T11:01:45.290Z,13.90
2017-09-24T11:04:18.368Z,15.27
2017-09-24T11:06:46.849Z,14.30
2017-09-24T11:09:15.322Z,13.70
2017-09-24T11:11:43.803Z,11.97
2017-09-24T11:14:16.668Z,12.17
2017-09-24T11:16:45.064Z,12.67
2017-09-24T11:19:13.534Z,13.10
2017-09-24T11:21:42.123Z,13.57
2017-09-24T11:24:10.506Z,12.67
2017-09-24T11:26:39.066Z,12.03
2017-09-24T11:29:07.495Z,13.00
2017-09-24T11:31:36.012Z,12.17
2017-09-24T11:34:04.686Z,12.30
2017-09-24T11:36:33.196Z,13.07
2017-09-24T11:39:01.558Z,13.60
2017-09-24T11:41:30.081Z,14.23
2017-09-24T11:43:58.500Z,11.83
2017-09-24T11:46:26.905Z,12.73
2017-09-24T11:48:55.435Z,12.00
2017-09-24T11:51:23.874Z,12.80
2017-09-24T11:53:52.262Z,11.10
2017-09-24T11:56:20.691Z,11.50
2017-09-24T11:58:49.047Z,11.17
2017-09-24T12:01:17.496Z,12.43
2017-09-24T12:03:45.958Z,12.40
2017-09-24T12:06:14.417Z,10.70
2017-09-24T12:08:42.902Z,10.60
2017-09-24T12:11:11.427Z,13.00
2017-09-24T12:13:39.868Z,11.70
2017-09-24T12:16:08.384Z,9.80
2017-09-24T12:18:36.887Z,11.10
2017-09-24T12:21:05.284Z,10.33
2017-09-24T12:23:33.781Z,10.30
2017-09-24T12:26:02.222Z,9.90
2017-09-24T12:28:30.685Z,9.97
2017-09-24T12:30:59.024Z,11.20
2017-09-24T12:33:27.438Z,8.17
2017-09-24T12:35:55.829Z,10.20
2017-09-24T12:38:25.503Z,11.00
2017-09-24T12:40:55.162Z,10.30
2017-09-24T12:43:23.563Z,10.47
2017-09-24T12:45:52.046Z,10.80
2017-09-24T12:48:20.599Z,10.10
2017-09-24T12:50:49.001Z,10.50
2017-09-24T12:53:17.372Z,11.33
2017-09-24T12:55:45.858Z,11.50
2017-09-24T12:58:14.281Z,13.10
2017-09-24T13:00:42.733Z,11.83
2017-09-24T13:03:11.277Z,12.30
2017-09-24T13:05:39.952Z,11.27
2017-09-24T13:08:08.660Z,11.70
2017-09-24T13:10:37.401Z,11.00
2017-09-24T13:13:05.838Z,11.40
2017-09-24T13:15:34.310Z,11.80
2017-09-24T13:18:02.829Z,9.93
2017-09-24T13:20:31.333Z,10.63
2017-09-24T13:22:59.825Z,10.40
2017-09-24T13:25:28.252Z,12.33
2017-09-24T13:27:56.680Z,10.67
2017-09-24T13:30:25.086Z,10.27
2017-09-24T13:32:53.657Z,9.87
2017-09-24T13:35:22.181Z,12.60
2017-09-24T13:37:50.596Z,9.70
2017-09-24T13:40:19.352Z,11.40
2017-09-24T13:42:47.967Z,10.90
2017-09-24T13:45:16.434Z,11.60
2017-09-24T13:47:44.929Z,10.43
2017-09-24T13:50:13.364Z,9.67
2017-09-24T13:52:41.848Z,8.93
2017-09-24T13:55:10.489Z,10.33
2017-09-24T13:57:39.000Z,9.77
2017-09-24T14:00:07.452Z,8.83
2017-09-24T14:02:36.159Z,10.40
2017-09-24T14:05:04.607Z,10.70
2017-09-24T14:07:33.306Z,10.07
2017-09-24T14:10:01.816Z,10.30
2017-09-24T14:12:30.790Z,13.23
2017-09-24T14:17:50.308Z,12.57
2017-09-24T14:23:31.212Z,10.90
2017-09-24T14:26:00.412Z,10.30
2017-09-24T14:28:31.325Z,10.40
2017-09-24T14:31:00.083Z,10.73
2017-09-24T14:33:28.505Z,10.83
2017-09-24T14:36:16.838Z,10.00
2017-09-24T14:38:45.438Z,10.77
2017-09-24T14:43:53.219Z,10.13
2017-09-24T14:46:21.800Z,10.70
2017-09-24T14:48:51.955Z,12.00
2017-09-24T14:51:20.665Z,11.97
2017-09-24T14:53:49.227Z,11.13
2017-09-24T14:58:55.508Z,13.00
2017-09-24T15:01:24.067Z,12.00
2017-09-24T15:03:53.782Z,18.10
2017-09-24T15:06:22.586Z,22.63
2017-09-24T15:11:23.956Z,16.17
2017-09-24T15:13:52.682Z,16.90
2017-09-24T15:27:05.298Z,16.53
2017-09-24T15:34:40.353Z,14.90
2017-09-24T15:42:24.329Z,16.27
2017-09-24T15:44:54.546Z,14.23
2017-09-24T15:55:20.972Z,10.17
2017-09-24T16:08:42.482Z,16.00
2017-09-24T16:11:11.260Z,17.10
2017-09-24T16:13:43.894Z,19.30
2017-09-24T16:16:12.938Z,21.13
2017-09-24T16:18:41.453Z,21.00
2017-09-24T16:24:19.695Z,20.50
2017-09-24T16:26:49.030Z,21.53
2017-09-24T16:29:17.514Z,21.83
2017-09-24T16:31:46.186Z,18.70
2017-09-24T16:34:15.705Z,23.00
2017-09-24T16:36:44.746Z,22.63
2017-09-24T16:39:13.421Z,20.60
2017-09-24T16:44:14.909Z,23.50
2017-09-24T16:46:43.536Z,21.53
2017-09-24T16:49:12.105Z,21.13
2017-09-24T16:56:48.891Z,20.70
2017-09-24T16:59:17.379Z,21.50
2017-09-24T17:04:21.357Z,16.83
2017-09-24T17:06:50.117Z,19.20
2017-09-24T17:09:18.540Z,16.87
2017-09-24T17:11:51.554Z,15.90
2017-09-24T17:14:20.241Z,16.10
2017-09-24T17:16:48.810Z,16.20
2017-09-24T17:19:21.126Z,18.10
2017-09-24T17:24:23.452Z,16.73
2017-09-24T17:26:55.938Z,16.23
2017-09-24T17:34:35.115Z,19.97
2017-09-24T17:39:39.964Z,22.27
2017-09-24T17:42:08.565Z,24.87
2017-09-24T17:44:38.487Z,21.93
2017-09-24T17:47:07.434Z,24.20
2017-09-24T17:52:11.720Z,23.37
2017-09-24T17:54:41.160Z,24.40
2017-09-24T17:57:09.716Z,23.90
2017-09-24T17:59:38.376Z,25.47
2017-09-24T18:02:07.250Z,25.27
2017-09-24T18:04:35.800Z,24.53
2017-09-24T18:07:05.121Z,23.93
2017-09-24T18:09:34.110Z,26.17
2017-09-24T18:12:04.711Z,26.03
2017-09-24T18:14:33.454Z,27.43
2017-09-24T18:17:01.875Z,28.80
2017-09-24T18:19:30.346Z,26.90
2017-09-24T18:21:58.936Z,25.10
2017-09-24T18:24:27.395Z,22.87
2017-09-24T18:26:55.902Z,21.47
2017-09-24T18:29:24.643Z,19.90
2017-09-24T18:31:53.053Z,20.57
2017-09-24T18:34:21.730Z,17.47
2017-09-24T18:36:52.039Z,17.17
2017-09-24T18:39:20.968Z,16.37
2017-09-24T18:49:30.611Z,15.03
2017-09-24T18:51:59.224Z,13.77
2017-09-24T18:59:36.219Z,15.10
2017-09-24T19:04:37.551Z,14.00
2017-09-24T19:12:14.142Z,15.83
2017-09-24T19:14:43.532Z,16.80
2017-09-24T19:17:11.963Z,15.87
2017-09-24T19:19:40.564Z,17.00
2017-09-24T19:24:45.498Z,15.37
2017-09-24T19:27:14.029Z,16.33
2017-09-24T19:29:42.547Z,16.43
2017-09-24T19:32:11.058Z,17.40
2017-09-24T19:34:39.952Z,16.63
2017-09-24T19:37:08.889Z,17.53
2017-09-24T19:39:37.573Z,17.70
2017-09-24T19:42:06.163Z,17.67
2017-09-24T19:44:38.585Z,19.03
2017-09-24T19:47:09.030Z,19.20
2017-09-24T19:49:37.861Z,20.57
2017-09-24T19:52:06.405Z,20.23
2017-09-24T19:54:35.071Z,17.57
2017-09-24T19:57:03.910Z,19.03
2017-09-24T19:59:32.323Z,21.33
2017-09-24T20:02:01.112Z,24.27
2017-09-24T20:04:29.723Z,22.50
2017-09-24T20:06:58.091Z,20.50
2017-09-24T20:09:26.487Z,21.63
2017-09-24T20:11:55.179Z,20.70
2017-09-24T20:14:23.693Z,23.37
2017-09-24T20:19:24.841Z,23.30
2017-09-24T20:21:53.300Z,22.83
2017-09-24T20:24:21.716Z,21.33
2017-09-24T20:26:50.235Z,20.77
2017-09-24T20:29:18.698Z,19.27
2017-09-24T20:31:47.149Z,20.43
2017-09-24T20:34:15.644Z,24.10
2017-09-24T20:36:44.118Z,21.60
2017-09-24T20:39:12.538Z,21.70
2017-09-24T20:41:41.245Z,20.90
2017-09-24T20:44:09.879Z,20.63
2017-09-24T20:46:38.265Z,22.00
2017-09-24T20:49:06.774Z,19.60
2017-09-24T20:51:35.243Z,22.20
2017-09-24T20:54:03.969Z,20.83
2017-09-24T20:56:32.446Z,21.30
2017-09-24T20:59:00.905Z,19.30
2017-09-24T21:01:29.600Z,22.43
2017-09-24T21:03:58.105Z,22.50
2017-09-24T21:06:26.604Z,22.60
2017-09-24T21:08:55.101Z,23.43
2017-09-24T21:11:23.590Z,22.00
2017-09-24T21:13:51.991Z,22.00
2017-09-24T21:16:20.650Z,22.67
2017-09-24T21:18:49.093Z,20.57
2017-09-24T21:21:17.532Z,23.30
2017-09-24T21:23:45.959Z,21.93
2017-09-24T21:26:14.481Z,21.77
2017-09-24T21:28:42.849Z,21.17
2017-09-24T21:31:11.324Z,22.73
2017-09-24T21:33:39.745Z,21.67
2017-09-24T21:36:08.466Z,20.40
2017-09-24T21:38:37.830Z,22.10
2017-09-24T21:41:06.342Z,22.00
2017-09-24T21:43:34.759Z,24.90
2017-09-24T21:46:03.161Z,26.43
2017-09-24T21:48:31.554Z,25.67
2017-09-24T21:50:59.913Z,24.60
2017-09-24T21:53:28.390Z,25.10
2017-09-24T21:55:56.755Z,26.37
2017-09-24T21:58:25.142Z,24.07
2017-09-24T22:00:53.513Z,24.70
2017-09-24T22:03:21.931Z,23.57
2017-09-24T22:05:50.303Z,23.27
2017-09-24T22:08:18.733Z,25.93
2017-09-24T22:10:47.189Z,23.97
2017-09-24T22:13:15.643Z,24.30
2017-09-24T22:15:44.001Z,24.27
2017-09-24T22:18:12.454Z,24.83
2017-09-24T22:20:40.839Z,24.40
2017-09-24T22:23:09.265Z,25.40
2017-09-24T22:25:37.801Z,24.70
2017-09-24T22:28:06.187Z,26.77
2017-09-24T22:30:34.586Z,27.47
2017-09-24T22:33:03.003Z,28.03
2017-09-24T22:35:31.360Z,25.90
2017-09-24T22:37:59.782Z,27.17
2017-09-24T22:40:28.289Z,28.00
2017-09-24T22:42:56.673Z,29.67
2017-09-24T22:45:25.025Z,28.40
2017-09-24T22:47:53.537Z,32.20
2017-09-24T22:50:21.886Z,32.17
2017-09-24T22:52:50.268Z,32.97
2017-09-24T22:55:18.650Z,32.77
2017-09-24T22:57:47.039Z,33.30
2017-09-24T23:00:15.410Z,32.80
2017-09-24T23:02:43.846Z,32.40
2017-09-24T23:05:13.215Z,33.20
2017-09-24T23:07:41.612Z,30.50
2017-09-24T23:10:10.038Z,32.80
2017-09-24T23:12:38.469Z,30.00
2017-09-24T23:15:06.882Z,29.77
2017-09-24T23:17:35.368Z,31.90
2017-09-24T23:20:03.701Z,32.03
2017-09-24T23:22:32.083Z,31.40
2017-09-24T23:25:00.645Z,30.80
2017-09-24T23:27:29.034Z,32.70
2017-09-24T23:29:57.397Z,31.70
2017-09-24T23:32:25.793Z,32.60
2017-09-24T23:34:54.285Z,32.83
2017-09-24T23:37:22.785Z,37.77
2017-09-24T23:39:51.219Z,31.93
2017-09-24T23:42:19.729Z,32.30
2017-09-24T23:44:48.127Z,32.10
2017-09-24T23:47:16.519Z,32.87
2017-09-24T23:49:44.892Z,32.20
2017-09-24T23:52:13.255Z,30.40
2017-09-24T23:54:41.646Z,32.63
2017-09-24T23:57:10.017Z,33.73
2017-09-24T23:59:38.446Z,35.77
